sensor_id;sensor_type;location;lat;lon;timestamp;temperature;humidity
70107;DHT22;57473;37.508;15.080;2022-07-29T00:01:40;27.60;77.10
70107;DHT22;57473;37.508;15.080;2022-07-29T00:04:08;27.60;77.20
70107;DHT22;57473;37.508;15.080;2022-07-29T00:06:35;27.50;77.10
70107;DHT22;57473;37.508;15.080;2022-07-29T00:09:02;27.50;77.10
70107;DHT22;57473;37.508;15.080;2022-07-29T00:11:30;27.50;77.10
70107;DHT22;57473;37.508;15.080;2022-07-29T00:13:57;27.50;77.00
70107;DHT22;57473;37.508;15.080;2022-07-29T00:16:24;27.40;77.00
70107;DHT22;57473;37.508;15.080;2022-07-29T00:18:52;27.50;76.90
70107;DHT22;57473;37.508;15.080;2022-07-29T00:21:19;27.40;76.70
70107;DHT22;57473;37.508;15.080;2022-07-29T00:23:46;27.40;76.60
70107;DHT22;57473;37.508;15.080;2022-07-29T00:26:13;27.40;76.70
70107;DHT22;57473;37.508;15.080;2022-07-29T00:28:41;27.40;76.60
70107;DHT22;57473;37.508;15.080;2022-07-29T00:31:08;27.40;76.60
70107;DHT22;57473;37.508;15.080;2022-07-29T00:33:35;27.40;76.60
70107;DHT22;57473;37.508;15.080;2022-07-29T00:36:02;27.40;76.70
70107;DHT22;57473;37.508;15.080;2022-07-29T00:38:30;27.30;76.80
70107;DHT22;57473;37.508;15.080;2022-07-29T00:40:57;27.30;77.00
70107;DHT22;57473;37.508;15.080;2022-07-29T00:43:24;27.30;77.00
70107;DHT22;57473;37.508;15.080;2022-07-29T00:45:51;27.30;77.10
70107;DHT22;57473;37.508;15.080;2022-07-29T00:48:19;27.30;77.20
70107;DHT22;57473;37.508;15.080;2022-07-29T00:50:46;27.30;77.00
70107;DHT22;57473;37.508;15.080;2022-07-29T00:53:13;27.20;77.00
70107;DHT22;57473;37.508;15.080;2022-07-29T00:55:41;27.20;76.60
70107;DHT22;57473;37.508;15.080;2022-07-29T00:58:08;27.30;76.10
70107;DHT22;57473;37.508;15.080;2022-07-29T01:00:35;27.30;75.70
70107;DHT22;57473;37.508;15.080;2022-07-29T01:03:03;27.30;75.40
70107;DHT22;57473;37.508;15.080;2022-07-29T01:05:31;27.30;75.20
70107;DHT22;57473;37.508;15.080;2022-07-29T01:08:17;27.20;75.30
70107;DHT22;57473;37.508;15.080;2022-07-29T01:10:45;27.20;75.00
70107;DHT22;57473;37.508;15.080;2022-07-29T01:13:14;27.20;74.80
70107;DHT22;57473;37.508;15.080;2022-07-29T01:15:49;27.20;74.80
70107;DHT22;57473;37.508;15.080;2022-07-29T01:18:31;27.10;74.20
70107;DHT22;57473;37.508;15.080;2022-07-29T01:32:18;27.00;72.40
70107;DHT22;57473;37.508;15.080;2022-07-29T01:35:09;26.90;72.40
70107;DHT22;57473;37.508;15.080;2022-07-29T01:40:34;26.90;71.30
70107;DHT22;57473;37.508;15.080;2022-07-29T01:43:26;26.90;71.20
70107;DHT22;57473;37.508;15.080;2022-07-29T01:46:00;26.90;70.90
70107;DHT22;57473;37.508;15.080;2022-07-29T01:48:37;26.90;69.50
70107;DHT22;57473;37.508;15.080;2022-07-29T01:51:19;27.00;68.50
70107;DHT22;57473;37.508;15.080;2022-07-29T01:54:04;27.00;68.60
70107;DHT22;57473;37.508;15.080;2022-07-29T01:56:35;27.10;71.10
70107;DHT22;57473;37.508;15.080;2022-07-29T01:59:05;27.10;72.30
70107;DHT22;57473;37.508;15.080;2022-07-29T02:01:34;27.00;73.30
70107;DHT22;57473;37.508;15.080;2022-07-29T02:04:03;27.00;74.20
70107;DHT22;57473;37.508;15.080;2022-07-29T02:06:35;27.00;74.80
70107;DHT22;57473;37.508;15.080;2022-07-29T02:09:04;27.00;75.10
70107;DHT22;57473;37.508;15.080;2022-07-29T02:11:35;27.00;74.90
70107;DHT22;57473;37.508;15.080;2022-07-29T02:14:04;26.90;75.00
70107;DHT22;57473;37.508;15.080;2022-07-29T02:16:34;26.90;75.00
70107;DHT22;57473;37.508;15.080;2022-07-29T02:19:05;26.80;74.50
70107;DHT22;57473;37.508;15.080;2022-07-29T02:21:33;26.90;74.20
70107;DHT22;57473;37.508;15.080;2022-07-29T02:24:02;26.80;73.90
70107;DHT22;57473;37.508;15.080;2022-07-29T02:26:32;26.80;73.30
70107;DHT22;57473;37.508;15.080;2022-07-29T02:29:01;26.80;73.00
70107;DHT22;57473;37.508;15.080;2022-07-29T02:31:32;26.70;72.90
70107;DHT22;57473;37.508;15.080;2022-07-29T02:34:02;26.70;73.70
70107;DHT22;57473;37.508;15.080;2022-07-29T02:36:31;26.70;74.70
70107;DHT22;57473;37.508;15.080;2022-07-29T02:39:00;26.70;75.00
70107;DHT22;57473;37.508;15.080;2022-07-29T02:41:35;26.70;75.10
70107;DHT22;57473;37.508;15.080;2022-07-29T02:44:09;26.70;75.10
70107;DHT22;57473;37.508;15.080;2022-07-29T02:46:41;26.60;75.60
70107;DHT22;57473;37.508;15.080;2022-07-29T02:49:28;26.60;76.20
70107;DHT22;57473;37.508;15.080;2022-07-29T02:52:01;26.60;76.60
70107;DHT22;57473;37.508;15.080;2022-07-29T02:54:42;26.60;76.90
70107;DHT22;57473;37.508;15.080;2022-07-29T02:57:20;26.50;77.30
70107;DHT22;57473;37.508;15.080;2022-07-29T02:59:51;26.50;77.50
70107;DHT22;57473;37.508;15.080;2022-07-29T03:02:20;26.50;78.20
70107;DHT22;57473;37.508;15.080;2022-07-29T03:04:48;26.50;79.00
70107;DHT22;57473;37.508;15.080;2022-07-29T03:07:18;26.50;79.40
70107;DHT22;57473;37.508;15.080;2022-07-29T03:09:47;26.40;79.80
70107;DHT22;57473;37.508;15.080;2022-07-29T03:12:16;26.40;80.60
70107;DHT22;57473;37.508;15.080;2022-07-29T03:14:44;26.40;80.90
70107;DHT22;57473;37.508;15.080;2022-07-29T03:17:11;26.40;80.70
70107;DHT22;57473;37.508;15.080;2022-07-29T03:19:39;26.40;80.60
70107;DHT22;57473;37.508;15.080;2022-07-29T03:22:07;26.40;80.80
70107;DHT22;57473;37.508;15.080;2022-07-29T03:24:36;26.30;80.90
70107;DHT22;57473;37.508;15.080;2022-07-29T03:27:04;26.30;81.10
70107;DHT22;57473;37.508;15.080;2022-07-29T03:29:32;26.30;81.30
70107;DHT22;57473;37.508;15.080;2022-07-29T03:32:02;26.30;80.50
70107;DHT22;57473;37.508;15.080;2022-07-29T03:34:35;26.30;80.40
70107;DHT22;57473;37.508;15.080;2022-07-29T03:37:03;26.20;80.30
70107;DHT22;57473;37.508;15.080;2022-07-29T03:39:36;26.20;80.20
70107;DHT22;57473;37.508;15.080;2022-07-29T03:42:06;26.20;80.00
70107;DHT22;57473;37.508;15.080;2022-07-29T03:44:34;26.20;79.70
70107;DHT22;57473;37.508;15.080;2022-07-29T03:47:03;26.10;79.90
70107;DHT22;57473;37.508;15.080;2022-07-29T03:49:32;26.10;79.90
70107;DHT22;57473;37.508;15.080;2022-07-29T03:52:01;26.10;80.00
70107;DHT22;57473;37.508;15.080;2022-07-29T03:54:35;26.10;80.00
70107;DHT22;57473;37.508;15.080;2022-07-29T03:57:04;26.10;78.10
70107;DHT22;57473;37.508;15.080;2022-07-29T03:59:33;26.00;77.20
70107;DHT22;57473;37.508;15.080;2022-07-29T04:02:02;26.00;76.60
70107;DHT22;57473;37.508;15.080;2022-07-29T04:04:33;26.00;75.20
70107;DHT22;57473;37.508;15.080;2022-07-29T04:07:02;26.00;75.30
70107;DHT22;57473;37.508;15.080;2022-07-29T04:09:29;26.00;75.40
70107;DHT22;57473;37.508;15.080;2022-07-29T04:11:57;25.90;74.70
70107;DHT22;57473;37.508;15.080;2022-07-29T04:14:31;25.90;74.10
70107;DHT22;57473;37.508;15.080;2022-07-29T04:16:59;25.90;73.50
70107;DHT22;57473;37.508;15.080;2022-07-29T04:19:27;25.90;73.60
70107;DHT22;57473;37.508;15.080;2022-07-29T04:21:54;26.00;72.90
70107;DHT22;57473;37.508;15.080;2022-07-29T04:24:21;26.00;72.60
70107;DHT22;57473;37.508;15.080;2022-07-29T04:26:48;26.00;72.90
70107;DHT22;57473;37.508;15.080;2022-07-29T04:29:16;26.00;73.00
70107;DHT22;57473;37.508;15.080;2022-07-29T04:31:43;26.00;72.70
70107;DHT22;57473;37.508;15.080;2022-07-29T04:34:11;26.00;72.40
70107;DHT22;57473;37.508;15.080;2022-07-29T04:36:40;26.10;71.70
70107;DHT22;57473;37.508;15.080;2022-07-29T04:39:08;26.10;71.10
70107;DHT22;57473;37.508;15.080;2022-07-29T04:41:35;26.20;71.10
70107;DHT22;57473;37.508;15.080;2022-07-29T04:44:02;26.20;71.30
70107;DHT22;57473;37.508;15.080;2022-07-29T04:46:33;26.20;71.40
70107;DHT22;57473;37.508;15.080;2022-07-29T04:49:02;26.20;71.20
70107;DHT22;57473;37.508;15.080;2022-07-29T04:51:30;26.20;71.20
70107;DHT22;57473;37.508;15.080;2022-07-29T04:53:57;26.20;71.40
70107;DHT22;57473;37.508;15.080;2022-07-29T04:56:24;26.20;71.20
70107;DHT22;57473;37.508;15.080;2022-07-29T04:58:52;26.30;71.10
70107;DHT22;57473;37.508;15.080;2022-07-29T05:01:20;26.30;71.10
70107;DHT22;57473;37.508;15.080;2022-07-29T05:03:47;26.40;71.30
70107;DHT22;57473;37.508;15.080;2022-07-29T05:06:14;26.40;71.30
70107;DHT22;57473;37.508;15.080;2022-07-29T05:08:41;26.50;71.40
70107;DHT22;57473;37.508;15.080;2022-07-29T05:11:09;26.50;71.60
70107;DHT22;57473;37.508;15.080;2022-07-29T05:13:39;26.60;71.70
70107;DHT22;57473;37.508;15.080;2022-07-29T05:16:13;26.60;71.90
70107;DHT22;57473;37.508;15.080;2022-07-29T05:18:41;26.70;71.90
70107;DHT22;57473;37.508;15.080;2022-07-29T05:21:09;26.70;72.00
70107;DHT22;57473;37.508;15.080;2022-07-29T05:23:36;26.80;71.60
70107;DHT22;57473;37.508;15.080;2022-07-29T05:26:03;26.80;71.70
70107;DHT22;57473;37.508;15.080;2022-07-29T05:28:34;26.90;71.50
70107;DHT22;57473;37.508;15.080;2022-07-29T05:31:04;26.90;70.90
70107;DHT22;57473;37.508;15.080;2022-07-29T05:33:32;27.00;70.60
70107;DHT22;57473;37.508;15.080;2022-07-29T05:36:05;27.10;70.20
70107;DHT22;57473;37.508;15.080;2022-07-29T05:38:35;27.20;70.00
70107;DHT22;57473;37.508;15.080;2022-07-29T05:41:03;27.20;70.00
70107;DHT22;57473;37.508;15.080;2022-07-29T05:43:31;27.30;70.40
70107;DHT22;57473;37.508;15.080;2022-07-29T05:45:58;27.40;70.50
70107;DHT22;57473;37.508;15.080;2022-07-29T05:48:26;27.40;70.20
70107;DHT22;57473;37.508;15.080;2022-07-29T05:50:54;27.50;69.90
70107;DHT22;57473;37.508;15.080;2022-07-29T05:53:22;27.60;69.80
70107;DHT22;57473;37.508;15.080;2022-07-29T05:55:49;27.60;69.70
70107;DHT22;57473;37.508;15.080;2022-07-29T05:58:17;27.70;69.40
70107;DHT22;57473;37.508;15.080;2022-07-29T06:00:44;27.80;69.30
70107;DHT22;57473;37.508;15.080;2022-07-29T06:03:11;27.90;69.00
70107;DHT22;57473;37.508;15.080;2022-07-29T06:05:39;28.00;68.90
70107;DHT22;57473;37.508;15.080;2022-07-29T06:08:06;28.10;68.70
70107;DHT22;57473;37.508;15.080;2022-07-29T06:10:37;28.20;68.50
70107;DHT22;57473;37.508;15.080;2022-07-29T06:13:05;28.30;68.30
70107;DHT22;57473;37.508;15.080;2022-07-29T06:15:32;28.50;68.20
70107;DHT22;57473;37.508;15.080;2022-07-29T06:18:00;28.60;67.90
70107;DHT22;57473;37.508;15.080;2022-07-29T06:20:29;28.70;67.40
70107;DHT22;57473;37.508;15.080;2022-07-29T06:22:57;28.80;67.30
70107;DHT22;57473;37.508;15.080;2022-07-29T06:25:26;28.80;67.20
70107;DHT22;57473;37.508;15.080;2022-07-29T06:27:53;28.90;66.70
70107;DHT22;57473;37.508;15.080;2022-07-29T06:30:20;29.10;66.50
70107;DHT22;57473;37.508;15.080;2022-07-29T06:32:47;29.20;66.10
70107;DHT22;57473;37.508;15.080;2022-07-29T06:35:15;29.30;65.40
70107;DHT22;57473;37.508;15.080;2022-07-29T06:38:03;29.40;65.00
70107;DHT22;57473;37.508;15.080;2022-07-29T06:40:50;29.40;65.10
70107;DHT22;57473;37.508;15.080;2022-07-29T06:43:40;29.50;64.60
70107;DHT22;57473;37.508;15.080;2022-07-29T06:46:21;29.60;64.50
70107;DHT22;57473;37.508;15.080;2022-07-29T06:48:49;29.60;64.30
70107;DHT22;57473;37.508;15.080;2022-07-29T06:51:17;29.60;63.60
70107;DHT22;57473;37.508;15.080;2022-07-29T06:53:50;29.60;63.50
70107;DHT22;57473;37.508;15.080;2022-07-29T06:56:31;29.80;63.00
70107;DHT22;57473;37.508;15.080;2022-07-29T06:59:09;29.90;62.30
70107;DHT22;57473;37.508;15.080;2022-07-29T07:01:38;30.10;62.10
70107;DHT22;57473;37.508;15.080;2022-07-29T07:04:07;30.40;62.20
70107;DHT22;57473;37.508;15.080;2022-07-29T07:06:36;30.20;62.80
70107;DHT22;57473;37.508;15.080;2022-07-29T07:09:03;30.40;62.30
70107;DHT22;57473;37.508;15.080;2022-07-29T07:11:30;30.50;62.10
70107;DHT22;57473;37.508;15.080;2022-07-29T07:13:58;30.70;62.40
70107;DHT22;57473;37.508;15.080;2022-07-29T07:16:30;30.80;62.20
70107;DHT22;57473;37.508;15.080;2022-07-29T07:18:57;30.90;61.10
70107;DHT22;57473;37.508;15.080;2022-07-29T07:21:25;30.60;62.20
70107;DHT22;57473;37.508;15.080;2022-07-29T07:23:56;30.50;62.70
70107;DHT22;57473;37.508;15.080;2022-07-29T07:26:23;30.50;62.80
70107;DHT22;57473;37.508;15.080;2022-07-29T07:28:50;30.50;62.40
70107;DHT22;57473;37.508;15.080;2022-07-29T07:31:18;30.70;61.70
70107;DHT22;57473;37.508;15.080;2022-07-29T07:33:45;30.70;61.60
70107;DHT22;57473;37.508;15.080;2022-07-29T07:36:13;30.60;62.30
70107;DHT22;57473;37.508;15.080;2022-07-29T07:38:40;30.60;61.80
70107;DHT22;57473;37.508;15.080;2022-07-29T07:41:08;30.70;60.80
70107;DHT22;57473;37.508;15.080;2022-07-29T07:43:43;30.80;60.60
70107;DHT22;57473;37.508;15.080;2022-07-29T07:47:20;30.70;61.00
70107;DHT22;57473;37.508;15.080;2022-07-29T07:50:33;30.90;60.30
70107;DHT22;57473;37.508;15.080;2022-07-29T07:53:18;31.00;60.10
70107;DHT22;57473;37.508;15.080;2022-07-29T07:55:58;30.90;61.10
70107;DHT22;57473;37.508;15.080;2022-07-29T07:59:06;30.90;61.30
70107;DHT22;57473;37.508;15.080;2022-07-29T08:01:56;30.90;61.00
70107;DHT22;57473;37.508;15.080;2022-07-29T08:05:20;30.80;61.80
70107;DHT22;57473;37.508;15.080;2022-07-29T08:08:02;30.90;61.50
70107;DHT22;57473;37.508;15.080;2022-07-29T08:10:29;30.90;61.40
70107;DHT22;57473;37.508;15.080;2022-07-29T08:13:19;31.00;60.60
70107;DHT22;57473;37.508;15.080;2022-07-29T08:15:52;31.00;60.80
70107;DHT22;57473;37.508;15.080;2022-07-29T08:18:40;31.10;60.00
70107;DHT22;57473;37.508;15.080;2022-07-29T08:21:15;31.30;60.60
70107;DHT22;57473;37.508;15.080;2022-07-29T08:23:44;31.20;59.90
70107;DHT22;57473;37.508;15.080;2022-07-29T08:26:28;31.10;61.10
70107;DHT22;57473;37.508;15.080;2022-07-29T08:29:02;31.30;60.80
70107;DHT22;57473;37.508;15.080;2022-07-29T08:31:38;31.30;59.80
70107;DHT22;57473;37.508;15.080;2022-07-29T08:34:06;31.40;59.60
70107;DHT22;57473;37.508;15.080;2022-07-29T08:36:34;31.60;59.50
70107;DHT22;57473;37.508;15.080;2022-07-29T08:39:03;31.80;58.50
70107;DHT22;57473;37.508;15.080;2022-07-29T08:41:30;31.70;58.70
70107;DHT22;57473;37.508;15.080;2022-07-29T08:44:23;31.70;59.10
70107;DHT22;57473;37.508;15.080;2022-07-29T08:47:00;31.70;58.00
70107;DHT22;57473;37.508;15.080;2022-07-29T08:49:28;31.80;57.40
70107;DHT22;57473;37.508;15.080;2022-07-29T08:51:57;32.00;57.20
70107;DHT22;57473;37.508;15.080;2022-07-29T08:54:25;32.00;55.90
70107;DHT22;57473;37.508;15.080;2022-07-29T08:56:53;32.10;55.50
70107;DHT22;57473;37.508;15.080;2022-07-29T08:59:25;32.10;55.10
70107;DHT22;57473;37.508;15.080;2022-07-29T09:01:57;32.20;54.10
70107;DHT22;57473;37.508;15.080;2022-07-29T09:04:34;32.20;53.50
70107;DHT22;57473;37.508;15.080;2022-07-29T09:07:03;32.30;53.40
70107;DHT22;57473;37.508;15.080;2022-07-29T09:09:33;32.20;53.10
70107;DHT22;57473;37.508;15.080;2022-07-29T09:12:01;32.30;52.60
70107;DHT22;57473;37.508;15.080;2022-07-29T09:15:03;32.20;52.20
70107;DHT22;57473;37.508;15.080;2022-07-29T09:17:49;32.30;51.90
70107;DHT22;57473;37.508;15.080;2022-07-29T09:20:21;32.30;52.50
70107;DHT22;57473;37.508;15.080;2022-07-29T09:22:53;32.20;51.70
70107;DHT22;57473;37.508;15.080;2022-07-29T09:25:35;32.20;51.70
70107;DHT22;57473;37.508;15.080;2022-07-29T09:28:21;32.30;52.00
70107;DHT22;57473;37.508;15.080;2022-07-29T09:30:57;32.50;51.80
70107;DHT22;57473;37.508;15.080;2022-07-29T09:33:32;32.50;51.10
70107;DHT22;57473;37.508;15.080;2022-07-29T09:36:08;32.60;50.50
70107;DHT22;57473;37.508;15.080;2022-07-29T09:38:36;32.70;49.90
70107;DHT22;57473;37.508;15.080;2022-07-29T09:41:05;32.70;49.60
70107;DHT22;57473;37.508;15.080;2022-07-29T09:43:33;32.80;48.90
70107;DHT22;57473;37.508;15.080;2022-07-29T09:46:11;32.70;48.30
70107;DHT22;57473;37.508;15.080;2022-07-29T09:49:09;32.70;48.90
70107;DHT22;57473;37.508;15.080;2022-07-29T09:51:37;32.70;48.90
70107;DHT22;57473;37.508;15.080;2022-07-29T09:54:24;32.60;49.00
70107;DHT22;57473;37.508;15.080;2022-07-29T09:56:54;32.60;49.80
70107;DHT22;57473;37.508;15.080;2022-07-29T09:59:22;32.60;50.20
70107;DHT22;57473;37.508;15.080;2022-07-29T10:01:53;32.70;49.20
70107;DHT22;57473;37.508;15.080;2022-07-29T10:04:21;32.80;48.00
70107;DHT22;57473;37.508;15.080;2022-07-29T10:06:56;32.80;48.90
70107;DHT22;57473;37.508;15.080;2022-07-29T10:09:31;32.80;48.70
70107;DHT22;57473;37.508;15.080;2022-07-29T10:12:18;32.90;48.70
70107;DHT22;57473;37.508;15.080;2022-07-29T10:14:46;33.00;48.30
70107;DHT22;57473;37.508;15.080;2022-07-29T10:17:15;33.10;48.40
70107;DHT22;57473;37.508;15.080;2022-07-29T10:19:43;33.00;48.20
70107;DHT22;57473;37.508;15.080;2022-07-29T10:22:11;33.10;47.90
70107;DHT22;57473;37.508;15.080;2022-07-29T10:24:38;33.10;47.50
70107;DHT22;57473;37.508;15.080;2022-07-29T10:27:08;33.20;46.70
70107;DHT22;57473;37.508;15.080;2022-07-29T10:29:36;33.30;47.40
70107;DHT22;57473;37.508;15.080;2022-07-29T10:32:21;33.30;46.10
70107;DHT22;57473;37.508;15.080;2022-07-29T10:44:18;33.20;45.50
70107;DHT22;57473;37.508;15.080;2022-07-29T10:46:50;33.20;46.90
70107;DHT22;57473;37.508;15.080;2022-07-29T10:49:19;33.30;46.70
70107;DHT22;57473;37.508;15.080;2022-07-29T10:52:09;33.30;45.90
70107;DHT22;57473;37.508;15.080;2022-07-29T10:57:22;33.20;47.90
70107;DHT22;57473;37.508;15.080;2022-07-29T11:02:46;33.40;47.80
70107;DHT22;57473;37.508;15.080;2022-07-29T11:05:21;33.50;48.90
70107;DHT22;57473;37.508;15.080;2022-07-29T11:10:53;34.10;48.60
70107;DHT22;57473;37.508;15.080;2022-07-29T11:16:10;34.90;46.60
70107;DHT22;57473;37.508;15.080;2022-07-29T11:21:41;35.70;42.60
70107;DHT22;57473;37.508;15.080;2022-07-29T11:27:12;35.20;44.90
70107;DHT22;57473;37.508;15.080;2022-07-29T11:29:58;35.70;43.10
70107;DHT22;57473;37.508;15.080;2022-07-29T11:32:39;36.10;41.80
70107;DHT22;57473;37.508;15.080;2022-07-29T11:35:19;36.40;41.60
70107;DHT22;57473;37.508;15.080;2022-07-29T11:38:28;36.40;41.80
70107;DHT22;57473;37.508;15.080;2022-07-29T11:43:52;36.10;42.60
70107;DHT22;57473;37.508;15.080;2022-07-29T11:46:48;36.00;42.10
70107;DHT22;57473;37.508;15.080;2022-07-29T11:49:26;35.80;43.20
70107;DHT22;57473;37.508;15.080;2022-07-29T11:51:58;36.40;41.70
70107;DHT22;57473;37.508;15.080;2022-07-29T11:54:32;36.50;41.10
70107;DHT22;57473;37.508;15.080;2022-07-29T11:57:20;36.80;41.40
70107;DHT22;57473;37.508;15.080;2022-07-29T11:59:48;36.90;40.20
70107;DHT22;57473;37.508;15.080;2022-07-29T12:02:16;36.70;40.80
70107;DHT22;57473;37.508;15.080;2022-07-29T12:05:04;37.20;40.50
70107;DHT22;57473;37.508;15.080;2022-07-29T12:07:37;36.90;40.80
70107;DHT22;57473;37.508;15.080;2022-07-29T12:10:11;36.70;41.50
70107;DHT22;57473;37.508;15.080;2022-07-29T12:12:51;36.60;41.90
70107;DHT22;57473;37.508;15.080;2022-07-29T12:15:27;36.30;42.10
70107;DHT22;57473;37.508;15.080;2022-07-29T12:18:15;36.40;42.20
70107;DHT22;57473;37.508;15.080;2022-07-29T12:20:45;36.90;41.30
70107;DHT22;57473;37.508;15.080;2022-07-29T12:23:13;37.20;40.80
70107;DHT22;57473;37.508;15.080;2022-07-29T12:25:43;37.60;40.20
70107;DHT22;57473;37.508;15.080;2022-07-29T12:28:15;37.90;40.00
70107;DHT22;57473;37.508;15.080;2022-07-29T12:30:53;37.50;40.20
70107;DHT22;57473;37.508;15.080;2022-07-29T12:33:28;37.10;40.90
70107;DHT22;57473;37.508;15.080;2022-07-29T12:36:00;37.30;39.10
70107;DHT22;57473;37.508;15.080;2022-07-29T12:38:43;37.50;39.40
70107;DHT22;57473;37.508;15.080;2022-07-29T12:41:10;37.90;39.80
70107;DHT22;57473;37.508;15.080;2022-07-29T12:43:54;38.10;38.80
70107;DHT22;57473;37.508;15.080;2022-07-29T12:46:22;38.30;39.00
70107;DHT22;57473;37.508;15.080;2022-07-29T12:48:54;38.50;37.70
70107;DHT22;57473;37.508;15.080;2022-07-29T12:51:34;38.40;38.20
70107;DHT22;57473;37.508;15.080;2022-07-29T12:56:33;38.80;40.30
70107;DHT22;57473;37.508;15.080;2022-07-29T12:59:21;39.10;39.10
70107;DHT22;57473;37.508;15.080;2022-07-29T13:01:54;39.10;39.20
70107;DHT22;57473;37.508;15.080;2022-07-29T13:04:32;38.40;38.40
70107;DHT22;57473;37.508;15.080;2022-07-29T13:07:08;38.30;40.40
70107;DHT22;57473;37.508;15.080;2022-07-29T13:09:38;38.80;39.90
70107;DHT22;57473;37.508;15.080;2022-07-29T13:12:12;38.90;38.50
70107;DHT22;57473;37.508;15.080;2022-07-29T13:14:42;38.90;38.00
70107;DHT22;57473;37.508;15.080;2022-07-29T13:17:16;38.50;39.50
70107;DHT22;57473;37.508;15.080;2022-07-29T13:19:49;38.30;39.20
70107;DHT22;57473;37.508;15.080;2022-07-29T13:22:19;38.70;39.50
70107;DHT22;57473;37.508;15.080;2022-07-29T13:24:59;38.90;38.80
70107;DHT22;57473;37.508;15.080;2022-07-29T13:27:30;38.50;40.00
70107;DHT22;57473;37.508;15.080;2022-07-29T13:30:09;38.30;39.30
70107;DHT22;57473;37.508;15.080;2022-07-29T13:32:37;38.50;39.70
70107;DHT22;57473;37.508;15.080;2022-07-29T13:35:08;39.00;39.00
70107;DHT22;57473;37.508;15.080;2022-07-29T13:37:40;38.90;37.90
70107;DHT22;57473;37.508;15.080;2022-07-29T13:40:11;38.70;37.60
70107;DHT22;57473;37.508;15.080;2022-07-29T13:42:39;38.50;38.60
70107;DHT22;57473;37.508;15.080;2022-07-29T13:45:15;38.30;38.20
70107;DHT22;57473;37.508;15.080;2022-07-29T13:47:56;38.60;37.80
70107;DHT22;57473;37.508;15.080;2022-07-29T13:50:23;38.90;38.40
70107;DHT22;57473;37.508;15.080;2022-07-29T13:52:54;38.80;38.30
70107;DHT22;57473;37.508;15.080;2022-07-29T13:55:25;39.10;37.20
70107;DHT22;57473;37.508;15.080;2022-07-29T13:57:52;39.10;38.60
70107;DHT22;57473;37.508;15.080;2022-07-29T14:00:21;39.50;38.20
70107;DHT22;57473;37.508;15.080;2022-07-29T14:02:52;39.50;38.80
70107;DHT22;57473;37.508;15.080;2022-07-29T14:05:19;39.70;37.90
70107;DHT22;57473;37.508;15.080;2022-07-29T14:07:47;39.50;38.00
70107;DHT22;57473;37.508;15.080;2022-07-29T14:10:17;39.30;38.80
70107;DHT22;57473;37.508;15.080;2022-07-29T14:12:47;38.90;39.60
70107;DHT22;57473;37.508;15.080;2022-07-29T14:15:16;38.90;38.80
70107;DHT22;57473;37.508;15.080;2022-07-29T14:17:44;39.10;37.60
70107;DHT22;57473;37.508;15.080;2022-07-29T14:20:15;39.20;38.40
70107;DHT22;57473;37.508;15.080;2022-07-29T14:22:43;39.40;38.90
70107;DHT22;57473;37.508;15.080;2022-07-29T14:25:11;38.30;41.10
70107;DHT22;57473;37.508;15.080;2022-07-29T14:27:42;38.10;41.10
70107;DHT22;57473;37.508;15.080;2022-07-29T14:30:10;37.70;42.00
70107;DHT22;57473;37.508;15.080;2022-07-29T14:32:37;37.20;41.50
70107;DHT22;57473;37.508;15.080;2022-07-29T14:35:05;36.10;43.70
70107;DHT22;57473;37.508;15.080;2022-07-29T14:37:34;35.40;45.10
70107;DHT22;57473;37.508;15.080;2022-07-29T14:40:08;34.90;45.00
70107;DHT22;57473;37.508;15.080;2022-07-29T14:42:35;34.20;45.40
70107;DHT22;57473;37.508;15.080;2022-07-29T14:45:05;33.90;47.50
70107;DHT22;57473;37.508;15.080;2022-07-29T14:47:33;33.60;48.80
70107;DHT22;57473;37.508;15.080;2022-07-29T14:50:01;33.50;48.40
70107;DHT22;57473;37.508;15.080;2022-07-29T14:52:29;33.20;48.00
70107;DHT22;57473;37.508;15.080;2022-07-29T14:55:01;33.00;50.10
70107;DHT22;57473;37.508;15.080;2022-07-29T14:57:29;32.70;51.80
70107;DHT22;57473;37.508;15.080;2022-07-29T14:59:56;32.70;52.40
70107;DHT22;57473;37.508;15.080;2022-07-29T15:02:24;32.70;52.00
70107;DHT22;57473;37.508;15.080;2022-07-29T15:05:13;32.70;51.90
70107;DHT22;57473;37.508;15.080;2022-07-29T15:07:40;32.60;53.20
70107;DHT22;57473;37.508;15.080;2022-07-29T15:10:07;32.60;53.80
70107;DHT22;57473;37.508;15.080;2022-07-29T15:12:35;32.40;54.40
70107;DHT22;57473;37.508;15.080;2022-07-29T15:15:02;32.20;53.90
70107;DHT22;57473;37.508;15.080;2022-07-29T15:17:30;32.20;54.20
70107;DHT22;57473;37.508;15.080;2022-07-29T15:19:57;32.00;54.70
70107;DHT22;57473;37.508;15.080;2022-07-29T15:22:30;31.90;55.20
70107;DHT22;57473;37.508;15.080;2022-07-29T15:24:58;31.70;56.30
70107;DHT22;57473;37.508;15.080;2022-07-29T15:27:25;31.70;57.00
70107;DHT22;57473;37.508;15.080;2022-07-29T15:29:52;31.70;56.90
70107;DHT22;57473;37.508;15.080;2022-07-29T15:32:19;31.70;56.40
70107;DHT22;57473;37.508;15.080;2022-07-29T15:34:47;31.80;56.50
70107;DHT22;57473;37.508;15.080;2022-07-29T15:37:14;31.70;57.20
70107;DHT22;57473;37.508;15.080;2022-07-29T15:39:43;31.70;57.40
70107;DHT22;57473;37.508;15.080;2022-07-29T15:42:10;31.70;57.40
70107;DHT22;57473;37.508;15.080;2022-07-29T15:44:37;31.80;57.00
70107;DHT22;57473;37.508;15.080;2022-07-29T15:47:04;31.70;56.50
70107;DHT22;57473;37.508;15.080;2022-07-29T15:49:38;31.70;56.80
70107;DHT22;57473;37.508;15.080;2022-07-29T15:52:18;31.80;56.80
70107;DHT22;57473;37.508;15.080;2022-07-29T15:54:55;31.80;56.60
70107;DHT22;57473;37.508;15.080;2022-07-29T15:57:23;31.70;57.00
70107;DHT22;57473;37.508;15.080;2022-07-29T15:59:51;31.70;56.90
70107;DHT22;57473;37.508;15.080;2022-07-29T16:02:18;31.70;56.70
70107;DHT22;57473;37.508;15.080;2022-07-29T16:04:45;31.70;56.30
70107;DHT22;57473;37.508;15.080;2022-07-29T16:07:14;31.70;56.70
70107;DHT22;57473;37.508;15.080;2022-07-29T16:09:42;31.70;56.20
70107;DHT22;57473;37.508;15.080;2022-07-29T16:12:15;31.70;56.10
70107;DHT22;57473;37.508;15.080;2022-07-29T16:14:44;31.70;56.10
70107;DHT22;57473;37.508;15.080;2022-07-29T16:17:11;31.70;55.90
70107;DHT22;57473;37.508;15.080;2022-07-29T16:19:42;31.70;55.20
70107;DHT22;57473;37.508;15.080;2022-07-29T16:22:10;31.60;56.30
70107;DHT22;57473;37.508;15.080;2022-07-29T16:24:38;31.70;56.30
70107;DHT22;57473;37.508;15.080;2022-07-29T16:27:05;31.60;55.90
70107;DHT22;57473;37.508;15.080;2022-07-29T16:29:33;31.60;55.90
70107;DHT22;57473;37.508;15.080;2022-07-29T16:32:07;31.60;56.50